createdAt,value
2023-05-19T00:01:17.029Z,100.00
2023-05-19T00:03:53.896Z,100.00
2023-05-19T00:06:27.809Z,100.00
2023-05-19T00:08:58.997Z,100.00
2023-05-19T00:11:27.709Z,100.00
2023-05-19T00:13:56.516Z,100.00
2023-05-19T00:16:25.913Z,100.00
2023-05-19T00:18:54.434Z,100.00
2023-05-19T00:21:22.853Z,100.00
2023-05-19T00:23:52.384Z,100.00
2023-05-19T00:26:21.945Z,100.00
2023-05-19T00:28:58.152Z,100.00
2023-05-19T00:31:26.635Z,100.00
2023-05-19T00:33:54.867Z,100.00
2023-05-19T00:36:22.988Z,100.00
2023-05-19T00:38:53.453Z,100.00
2023-05-19T00:41:22.758Z,100.00
2023-05-19T00:43:51.886Z,100.00
2023-05-19T00:46:20.408Z,100.00
2023-05-19T00:48:49.095Z,100.00
2023-05-19T00:51:17.955Z,100.00
2023-05-19T00:53:49.510Z,100.00
2023-05-19T00:56:20.256Z,100.00
2023-05-19T00:58:48.595Z,100.00
2023-05-19T01:01:17.812Z,100.00
2023-05-19T01:03:47.251Z,100.00
2023-05-19T01:06:15.619Z,100.00
2023-05-19T01:08:43.781Z,100.00
2023-05-19T01:11:11.913Z,100.00
2023-05-19T01:13:42.286Z,100.00
2023-05-19T01:16:14.165Z,100.00
2023-05-19T01:18:47.192Z,100.00
2023-05-19T01:21:37.536Z,100.00
2023-05-19T01:24:22.906Z,100.00
2023-05-19T01:27:24.001Z,100.00
2023-05-19T01:30:19.354Z,100.00
2023-05-19T01:32:49.249Z,100.00
2023-05-19T01:35:18.040Z,100.00
2023-05-19T01:37:46.720Z,100.00
2023-05-19T01:40:14.905Z,100.00
2023-05-19T01:42:45.438Z,100.00
2023-05-19T01:45:13.598Z,100.00
2023-05-19T01:47:45.696Z,100.00
2023-05-19T01:50:13.928Z,100.00
2023-05-19T01:52:42.133Z,100.00
2023-05-19T01:55:10.981Z,100.00
2023-05-19T01:57:46.446Z,100.00
2023-05-19T02:00:20.519Z,100.00
2023-05-19T02:02:58.003Z,100.00
2023-05-19T02:05:34.946Z,100.00
2023-05-19T02:08:12.318Z,100.00
2023-05-19T02:10:43.631Z,100.00
2023-05-19T02:13:12.802Z,100.00
2023-05-19T02:15:43.768Z,100.00
2023-05-19T02:18:13.667Z,100.00
2023-05-19T02:20:42.982Z,100.00
2023-05-19T02:23:11.106Z,100.00
2023-05-19T02:25:39.261Z,100.00
2023-05-19T02:28:07.468Z,100.00
2023-05-19T02:30:35.639Z,100.00
2023-05-19T02:33:06.455Z,100.00
2023-05-19T02:35:36.092Z,100.00
2023-05-19T02:38:04.394Z,100.00
2023-05-19T02:40:33.034Z,100.00
2023-05-19T02:43:01.760Z,100.00
2023-05-19T02:45:30.093Z,100.00
2023-05-19T02:47:58.908Z,100.00
2023-05-19T02:50:27.288Z,100.00
2023-05-19T02:52:56.812Z,100.00
2023-05-19T02:55:24.982Z,100.00
2023-05-19T02:57:53.169Z,100.00
2023-05-19T03:00:21.533Z,100.00
2023-05-19T03:02:50.079Z,100.00
2023-05-19T03:05:18.519Z,100.00
2023-05-19T03:07:46.741Z,100.00
2023-05-19T03:10:16.471Z,100.00
2023-05-19T03:12:44.647Z,100.00
2023-05-19T03:15:15.067Z,100.00
2023-05-19T03:17:43.491Z,100.00
2023-05-19T03:20:12.502Z,100.00
2023-05-19T03:22:41.045Z,100.00
2023-05-19T03:25:09.987Z,100.00
2023-05-19T03:27:39.536Z,100.00
2023-05-19T03:30:09.118Z,100.00
2023-05-19T03:32:47.912Z,100.00
2023-05-19T03:35:16.324Z,100.00
2023-05-19T03:37:44.502Z,100.00
2023-05-19T03:40:13.941Z,100.00
2023-05-19T03:42:45.632Z,100.00
2023-05-19T03:45:13.911Z,100.00
2023-05-19T03:47:42.587Z,100.00
2023-05-19T03:50:24.421Z,100.00
2023-05-19T03:52:56.295Z,100.00
2023-05-19T03:55:30.004Z,100.00
2023-05-19T03:57:59.688Z,100.00
2023-05-19T04:00:27.795Z,100.00
2023-05-19T04:02:56.260Z,100.00
2023-05-19T04:05:24.452Z,100.00
2023-05-19T04:07:52.588Z,100.00
2023-05-19T04:10:21.136Z,100.00
2023-05-19T04:12:49.287Z,100.00
2023-05-19T04:15:18.978Z,100.00
2023-05-19T04:17:47.225Z,100.00
2023-05-19T04:20:15.655Z,100.00
2023-05-19T04:22:43.808Z,100.00
2023-05-19T04:25:12.062Z,100.00
2023-05-19T04:27:41.045Z,100.00
2023-05-19T04:30:10.330Z,100.00
2023-05-19T04:32:41.514Z,100.00
2023-05-19T04:35:10.855Z,100.00
2023-05-19T04:37:39.188Z,100.00
2023-05-19T04:40:11.182Z,100.00
2023-05-19T04:42:41.500Z,100.00
2023-05-19T04:45:12.701Z,100.00
2023-05-19T04:47:47.020Z,100.00
2023-05-19T04:50:16.458Z,100.00
2023-05-19T04:52:45.579Z,100.00
2023-05-19T04:55:13.831Z,100.00
2023-05-19T04:57:43.008Z,100.00
2023-05-19T05:00:13.684Z,100.00
2023-05-19T05:02:57.636Z,100.00
2023-05-19T05:05:27.745Z,100.00
2023-05-19T05:07:57.456Z,100.00
2023-05-19T05:10:28.280Z,100.00
2023-05-19T05:12:57.193Z,100.00
2023-05-19T05:15:28.676Z,100.00
2023-05-19T05:18:00.411Z,100.00
2023-05-19T05:20:29.330Z,100.00
2023-05-19T05:22:58.806Z,100.00
2023-05-19T05:25:28.449Z,100.00
2023-05-19T05:27:58.959Z,100.00
2023-05-19T05:30:27.142Z,100.00
2023-05-19T05:32:56.025Z,100.00
2023-05-19T05:35:37.142Z,100.00
2023-05-19T05:38:07.014Z,100.00
2023-05-19T05:40:36.061Z,100.00
2023-05-19T05:43:05.382Z,100.00
2023-05-19T05:45:37.051Z,100.00
2023-05-19T05:48:06.279Z,100.00
2023-05-19T05:50:37.319Z,100.00
2023-05-19T05:53:08.031Z,100.00
2023-05-19T05:55:39.430Z,100.00
2023-05-19T05:58:11.421Z,100.00
2023-05-19T06:00:40.251Z,100.00
2023-05-19T06:03:10.034Z,100.00
2023-05-19T06:05:40.036Z,100.00
2023-05-19T06:08:08.322Z,100.00
2023-05-19T06:10:39.056Z,100.00
2023-05-19T06:13:09.668Z,100.00
2023-05-19T06:15:41.271Z,100.00
2023-05-19T06:18:19.172Z,100.00
2023-05-19T06:20:50.898Z,100.00
2023-05-19T06:23:19.028Z,100.00
2023-05-19T06:25:47.396Z,100.00
2023-05-19T06:28:16.062Z,100.00
2023-05-19T06:30:44.882Z,100.00
2023-05-19T06:33:23.179Z,100.00
2023-05-19T06:35:52.677Z,100.00
2023-05-19T06:38:22.104Z,100.00
2023-05-19T06:40:51.659Z,100.00
2023-05-19T06:43:19.940Z,100.00
2023-05-19T06:45:56.174Z,100.00
2023-05-19T06:48:26.802Z,96.70
2023-05-19T06:50:56.541Z,100.00
2023-05-19T06:53:26.587Z,99.45
2023-05-19T06:55:59.948Z,98.12
2023-05-19T06:58:33.605Z,97.62
2023-05-19T07:01:04.866Z,98.65
2023-05-19T07:03:39.365Z,97.56
2023-05-19T07:06:09.382Z,95.34
2023-05-19T07:08:38.458Z,98.56
2023-05-19T07:11:10.839Z,100.00
2023-05-19T07:13:40.480Z,94.99
2023-05-19T07:16:09.498Z,90.57
2023-05-19T07:18:37.779Z,91.06
2023-05-19T07:21:07.416Z,89.74
2023-05-19T07:23:37.383Z,81.67
2023-05-19T07:26:06.539Z,81.80
2023-05-19T07:28:35.701Z,82.61
2023-05-19T07:31:04.000Z,87.66
2023-05-19T07:33:32.272Z,85.70
2023-05-19T07:36:00.527Z,82.56
2023-05-19T07:38:29.049Z,78.95
2023-05-19T07:40:58.619Z,76.42
2023-05-19T07:43:27.611Z,73.27
2023-05-19T07:45:56.426Z,72.90
2023-05-19T07:48:25.978Z,73.05
2023-05-19T07:50:54.298Z,70.31
2023-05-19T07:53:23.761Z,71.42
2023-05-19T07:55:52.717Z,69.66
2023-05-19T07:58:23.352Z,69.58
2023-05-19T08:00:54.563Z,71.22
2023-05-19T08:03:24.589Z,69.52
2023-05-19T08:05:52.931Z,67.77
2023-05-19T08:08:22.051Z,68.19
2023-05-19T08:10:55.060Z,69.03
2023-05-19T08:13:27.789Z,68.26
2023-05-19T08:16:00.259Z,66.41
2023-05-19T08:18:28.586Z,65.98
2023-05-19T08:20:58.426Z,63.68
2023-05-19T08:23:35.404Z,64.51
2023-05-19T08:26:03.631Z,64.46
2023-05-19T08:28:40.664Z,63.89
2023-05-19T08:31:08.897Z,62.15
2023-05-19T08:33:37.262Z,62.40
2023-05-19T08:36:06.668Z,62.73
2023-05-19T08:38:34.854Z,62.84
2023-05-19T08:41:03.106Z,64.02
2023-05-19T08:43:31.293Z,63.95
2023-05-19T08:46:01.271Z,64.08
2023-05-19T08:48:30.959Z,64.37
2023-05-19T08:51:14.629Z,65.53
2023-05-19T08:53:50.217Z,68.61
2023-05-19T08:56:23.114Z,66.73
2023-05-19T08:58:54.473Z,68.47
2023-05-19T09:01:24.524Z,67.41
2023-05-19T09:03:53.274Z,65.95
2023-05-19T09:06:22.064Z,63.10
2023-05-19T09:08:50.285Z,62.65
2023-05-19T09:11:18.465Z,62.97
2023-05-19T09:13:47.072Z,62.43
2023-05-19T09:16:15.844Z,62.50
2023-05-19T09:18:55.243Z,60.76
2023-05-19T09:21:31.541Z,58.53
2023-05-19T09:24:00.649Z,57.82
2023-05-19T09:26:38.053Z,56.06
2023-05-19T09:29:12.794Z,57.14
2023-05-19T09:31:41.392Z,59.03
2023-05-19T09:34:17.297Z,59.67
2023-05-19T09:36:49.521Z,59.18
2023-05-19T09:39:18.381Z,59.43
2023-05-19T09:41:46.944Z,56.55
2023-05-19T09:44:15.656Z,55.64
2023-05-19T09:46:52.711Z,56.58
2023-05-19T09:49:23.236Z,55.86
2023-05-19T09:51:52.907Z,54.43
2023-05-19T09:54:23.078Z,54.84
2023-05-19T09:56:59.915Z,55.59
2023-05-19T09:59:32.043Z,53.63
2023-05-19T10:02:02.313Z,53.08
2023-05-19T10:04:32.589Z,53.96
2023-05-19T10:07:00.962Z,53.66
2023-05-19T10:09:30.009Z,52.91
2023-05-19T10:11:59.298Z,52.96
2023-05-19T10:14:28.587Z,54.05
2023-05-19T10:16:58.523Z,55.99
2023-05-19T10:19:29.613Z,54.83
2023-05-19T10:21:59.500Z,54.21
2023-05-19T10:24:27.713Z,54.38
2023-05-19T10:27:01.098Z,54.70
2023-05-19T10:29:32.940Z,53.74
2023-05-19T10:32:03.591Z,52.62
2023-05-19T10:35:07.584Z,52.80
2023-05-19T10:37:43.299Z,51.64
2023-05-19T10:40:15.039Z,52.54
2023-05-19T10:42:48.367Z,53.17
2023-05-19T10:45:19.230Z,53.38
2023-05-19T10:47:47.536Z,52.86
2023-05-19T10:50:17.505Z,54.17
2023-05-19T10:52:54.542Z,53.16
2023-05-19T10:55:47.699Z,53.45
2023-05-19T10:58:15.890Z,53.82
2023-05-19T11:00:45.230Z,53.88
2023-05-19T11:03:14.826Z,54.44
2023-05-19T11:05:45.657Z,55.39
2023-05-19T11:08:15.351Z,53.40
2023-05-19T11:10:46.117Z,52.67
2023-05-19T11:13:22.478Z,52.02
2023-05-19T11:15:51.241Z,51.76
2023-05-19T11:18:20.486Z,49.29
2023-05-19T11:20:58.132Z,48.21
2023-05-19T11:23:27.894Z,48.84
2023-05-19T11:25:56.213Z,47.62
2023-05-19T11:28:26.297Z,48.17
2023-05-19T11:30:57.720Z,49.71
2023-05-19T11:33:27.850Z,49.90
2023-05-19T11:35:58.950Z,49.18
2023-05-19T11:38:30.095Z,48.38
2023-05-19T11:40:58.603Z,47.99
2023-05-19T11:43:27.213Z,47.35
2023-05-19T11:45:56.078Z,47.07
2023-05-19T11:48:25.975Z,46.41
2023-05-19T11:50:54.560Z,45.98
2023-05-19T11:53:22.814Z,44.19
2023-05-19T11:55:52.707Z,44.20
2023-05-19T11:58:27.514Z,44.26
2023-05-19T12:00:55.879Z,44.12
2023-05-19T12:03:26.633Z,43.88
2023-05-19T12:05:55.193Z,44.53
2023-05-19T12:08:23.599Z,44.01
2023-05-19T12:10:54.177Z,43.60
2023-05-19T12:13:23.509Z,44.29
2023-05-19T12:15:52.374Z,42.82
2023-05-19T12:18:20.691Z,44.13
2023-05-19T12:20:49.297Z,43.47
2023-05-19T12:23:21.642Z,42.69
2023-05-19T12:25:50.836Z,44.77
2023-05-19T12:28:20.921Z,44.64
2023-05-19T12:30:51.815Z,44.97
2023-05-19T12:33:22.070Z,44.44
2023-05-19T12:35:50.858Z,43.55
2023-05-19T12:38:23.625Z,44.39
2023-05-19T12:40:52.410Z,45.05
2023-05-19T12:43:22.560Z,46.16
2023-05-19T12:45:51.016Z,46.22
2023-05-19T12:48:22.587Z,45.90
2023-05-19T12:50:53.882Z,45.54
2023-05-19T12:53:22.173Z,45.91
2023-05-19T12:55:53.805Z,46.16
2023-05-19T12:58:24.295Z,50.45
2023-05-19T13:00:52.843Z,49.67
2023-05-19T13:03:22.226Z,48.01
2023-05-19T13:05:51.975Z,48.38
2023-05-19T13:08:21.903Z,47.33
2023-05-19T13:10:50.173Z,46.60
2023-05-19T13:13:18.418Z,46.22
2023-05-19T13:15:49.492Z,45.85
2023-05-19T13:18:18.533Z,44.70
2023-05-19T13:20:50.128Z,43.58
2023-05-19T13:23:19.386Z,45.46
2023-05-19T13:25:47.836Z,43.14
2023-05-19T13:28:16.432Z,43.84
2023-05-19T13:30:47.465Z,44.95
2023-05-19T13:33:15.751Z,45.49
2023-05-19T13:35:44.997Z,43.76
2023-05-19T13:38:14.674Z,44.75
2023-05-19T13:40:42.913Z,44.42
2023-05-19T13:43:13.399Z,45.21
2023-05-19T13:45:42.745Z,46.18
2023-05-19T13:48:13.241Z,44.86
2023-05-19T13:50:41.585Z,44.66
2023-05-19T13:53:11.497Z,44.68
2023-05-19T13:55:39.846Z,44.67
2023-05-19T13:58:11.015Z,46.72
2023-05-19T14:00:39.867Z,45.01
2023-05-19T14:03:08.507Z,44.89
2023-05-19T14:05:38.215Z,45.00
2023-05-19T14:08:06.851Z,44.79
2023-05-19T14:10:35.236Z,44.07
2023-05-19T14:13:29.912Z,43.89
2023-05-19T14:15:52.849Z,44.35
2023-05-19T14:18:22.732Z,45.16
2023-05-19T14:20:52.320Z,46.86
2023-05-19T14:23:21.717Z,46.45
2023-05-19T14:25:50.041Z,45.21
2023-05-19T14:28:18.374Z,46.48
2023-05-19T14:30:46.832Z,46.89
2023-05-19T14:33:15.384Z,48.66
2023-05-19T14:35:43.628Z,48.69
2023-05-19T14:38:13.801Z,48.42
2023-05-19T14:40:42.946Z,49.57
2023-05-19T14:43:11.347Z,51.23
2023-05-19T14:45:41.968Z,52.73
2023-05-19T14:48:11.867Z,53.48
2023-05-19T14:50:40.258Z,54.11
2023-05-19T14:53:08.713Z,55.34
2023-05-19T14:55:38.442Z,55.22
2023-05-19T14:58:15.858Z,53.85
2023-05-19T15:00:55.017Z,53.51
2023-05-19T15:03:23.363Z,53.43
2023-05-19T15:05:51.652Z,53.52
2023-05-19T15:08:19.891Z,53.74
2023-05-19T15:10:51.379Z,54.16
2023-05-19T15:13:21.581Z,54.04
2023-05-19T15:15:50.082Z,54.41
2023-05-19T15:18:18.795Z,54.52
2023-05-19T15:20:47.582Z,54.13
2023-05-19T15:23:15.843Z,53.94
2023-05-19T15:25:45.573Z,54.24
2023-05-19T15:28:16.785Z,54.11
2023-05-19T15:30:45.613Z,54.56
2023-05-19T15:33:14.005Z,54.24
2023-05-19T15:35:42.370Z,55.03
2023-05-19T15:38:11.020Z,54.46
2023-05-19T15:40:39.418Z,54.56
2023-05-19T15:43:07.642Z,54.39
2023-05-19T15:45:37.195Z,54.17
2023-05-19T15:48:05.827Z,54.11
2023-05-19T15:50:34.522Z,53.40
2023-05-19T15:53:05.300Z,54.88
2023-05-19T15:55:33.604Z,55.06
2023-05-19T15:58:03.779Z,55.66
2023-05-19T16:00:32.153Z,55.81
2023-05-19T16:03:02.151Z,56.63
2023-05-19T16:05:31.096Z,58.13
2023-05-19T16:07:59.591Z,58.77
2023-05-19T16:10:27.826Z,59.02
2023-05-19T16:12:56.064Z,60.21
2023-05-19T16:15:24.411Z,60.06
2023-05-19T16:17:53.728Z,60.74
2023-05-19T16:20:27.895Z,60.84
2023-05-19T16:22:56.281Z,60.95
2023-05-19T16:25:25.018Z,62.59
2023-05-19T16:27:53.523Z,61.83
2023-05-19T16:30:24.908Z,63.21
2023-05-19T16:32:54.873Z,61.90
2023-05-19T16:35:24.489Z,62.81
2023-05-19T16:37:52.776Z,62.27
2023-05-19T16:40:21.066Z,61.78
2023-05-19T16:42:49.566Z,62.42
2023-05-19T16:45:18.422Z,61.85
2023-05-19T16:47:46.666Z,61.85
2023-05-19T16:50:14.916Z,63.89
2023-05-19T16:52:45.404Z,64.04
2023-05-19T16:55:17.436Z,63.61
2023-05-19T16:57:45.652Z,62.88
2023-05-19T17:00:14.785Z,64.69
2023-05-19T17:02:43.113Z,63.16
2023-05-19T17:05:11.567Z,64.54
2023-05-19T17:07:39.836Z,65.08
2023-05-19T17:10:12.035Z,65.17
2023-05-19T17:12:40.913Z,63.80
2023-05-19T17:15:09.760Z,64.91
2023-05-19T17:17:38.007Z,65.75
2023-05-19T17:20:07.540Z,66.85
2023-05-19T17:22:35.712Z,67.61
2023-05-19T17:25:04.119Z,69.21
2023-05-19T17:27:34.100Z,70.81
2023-05-19T17:30:02.354Z,70.11
2023-05-19T17:32:35.937Z,71.94
2023-05-19T17:35:06.499Z,75.30
2023-05-19T17:37:34.847Z,76.59
2023-05-19T17:40:03.138Z,78.41
2023-05-19T17:42:31.827Z,81.77
2023-05-19T17:45:01.702Z,80.47
2023-05-19T17:47:30.144Z,83.05
2023-05-19T17:49:58.390Z,81.43
2023-05-19T17:52:27.135Z,81.69
2023-05-19T17:54:56.346Z,83.12
2023-05-19T17:57:26.604Z,83.96
2023-05-19T17:59:55.565Z,85.88
2023-05-19T18:02:26.476Z,89.15
2023-05-19T18:04:56.028Z,93.73
2023-05-19T18:07:26.370Z,93.18
2023-05-19T18:09:57.316Z,95.06
2023-05-19T18:12:25.912Z,96.27
2023-05-19T18:14:54.843Z,96.50
2023-05-19T18:17:27.285Z,98.13
2023-05-19T18:19:57.016Z,100.00
2023-05-19T18:22:26.558Z,100.00
2023-05-19T18:24:58.538Z,100.00
2023-05-19T18:27:32.130Z,100.00
2023-05-19T18:30:03.031Z,100.00
2023-05-19T18:32:37.001Z,99.88
2023-05-19T18:35:07.245Z,100.00
2023-05-19T18:37:36.606Z,100.00
2023-05-19T18:40:06.695Z,100.00
2023-05-19T18:42:35.825Z,100.00
2023-05-19T18:45:05.661Z,100.00
2023-05-19T18:47:36.257Z,100.00
2023-05-19T18:50:05.976Z,100.00
2023-05-19T18:52:35.790Z,100.00
2023-05-19T18:55:05.054Z,100.00
2023-05-19T18:57:35.733Z,100.00
2023-05-19T19:00:08.472Z,100.00
2023-05-19T19:02:39.219Z,100.00
2023-05-19T19:05:10.585Z,100.00
2023-05-19T19:07:44.781Z,100.00
2023-05-19T19:10:15.106Z,100.00
2023-05-19T19:12:44.438Z,100.00
2023-05-19T19:15:13.748Z,100.00
2023-05-19T19:17:45.269Z,100.00
2023-05-19T19:20:15.179Z,100.00
2023-05-19T19:22:44.335Z,100.00
2023-05-19T19:25:13.569Z,100.00
2023-05-19T19:27:45.366Z,100.00
2023-05-19T19:30:14.910Z,100.00
2023-05-19T19:32:46.036Z,100.00
2023-05-19T19:35:19.478Z,100.00
2023-05-19T19:37:53.140Z,100.00
2023-05-19T19:40:22.401Z,100.00
2023-05-19T19:42:54.343Z,100.00
2023-05-19T19:45:23.638Z,100.00
2023-05-19T19:47:54.329Z,100.00
2023-05-19T19:50:27.056Z,100.00
2023-05-19T19:52:56.368Z,100.00
2023-05-19T19:55:27.529Z,100.00
2023-05-19T19:57:56.856Z,100.00
2023-05-19T20:00:26.317Z,100.00
2023-05-19T20:03:05.072Z,100.00
2023-05-19T20:05:38.787Z,100.00
2023-05-19T20:08:08.080Z,100.00
2023-05-19T20:10:37.420Z,100.00
2023-05-19T20:13:07.128Z,100.00
2023-05-19T20:15:36.645Z,100.00
2023-05-19T20:18:07.461Z,100.00
2023-05-19T20:20:36.815Z,100.00
2023-05-19T20:23:19.085Z,100.00
2023-05-19T20:26:06.645Z,100.00
2023-05-19T20:28:38.506Z,100.00
2023-05-19T20:31:08.064Z,100.00
2023-05-19T20:33:38.924Z,100.00
2023-05-19T20:36:08.835Z,100.00
2023-05-19T20:38:41.073Z,100.00
2023-05-19T20:41:10.146Z,100.00
2023-05-19T20:43:39.239Z,100.00
2023-05-19T20:46:09.108Z,100.00
2023-05-19T20:48:39.540Z,100.00
2023-05-19T20:51:08.796Z,100.00
2023-05-19T20:53:37.968Z,100.00
2023-05-19T20:56:07.647Z,100.00
2023-05-19T20:58:36.287Z,100.00
2023-05-19T21:01:04.777Z,100.00
2023-05-19T21:03:33.126Z,100.00
2023-05-19T21:06:03.305Z,100.00
2023-05-19T21:08:31.619Z,100.00
2023-05-19T21:11:03.248Z,100.00
2023-05-19T21:13:31.404Z,100.00
2023-05-19T21:15:59.757Z,100.00
2023-05-19T21:18:28.730Z,100.00
2023-05-19T21:20:57.049Z,100.00
2023-05-19T21:23:26.730Z,100.00
2023-05-19T21:25:54.904Z,100.00
2023-05-19T21:28:23.569Z,100.00
2023-05-19T21:30:51.864Z,100.00
2023-05-19T21:33:20.297Z,100.00
2023-05-19T21:35:51.677Z,100.00
2023-05-19T21:38:23.871Z,100.00
2023-05-19T21:40:54.104Z,100.00
2023-05-19T21:43:23.331Z,100.00
2023-05-19T21:45:51.558Z,100.00
2023-05-19T21:48:19.824Z,100.00
2023-05-19T21:50:53.436Z,100.00
2023-05-19T21:53:21.626Z,100.00
2023-05-19T21:55:49.802Z,100.00
2023-05-19T21:58:19.374Z,100.00
2023-05-19T22:00:50.082Z,100.00
2023-05-19T22:03:18.628Z,100.00
2023-05-19T22:05:49.827Z,100.00
2023-05-19T22:08:18.872Z,100.00
2023-05-19T22:10:49.994Z,100.00
2023-05-19T22:13:19.807Z,100.00
2023-05-19T22:15:48.169Z,100.00
2023-05-19T22:18:16.916Z,100.00
2023-05-19T22:20:45.188Z,100.00
2023-05-19T22:23:13.376Z,100.00
2023-05-19T22:25:41.581Z,100.00
2023-05-19T22:28:10.222Z,100.00
2023-05-19T22:30:41.020Z,100.00
2023-05-19T22:33:09.693Z,100.00
2023-05-19T22:35:38.507Z,100.00
2023-05-19T22:38:08.890Z,100.00
2023-05-19T22:40:38.785Z,100.00
2023-05-19T22:43:07.020Z,100.00
2023-05-19T22:45:35.718Z,100.00
2023-05-19T22:48:06.114Z,100.00
2023-05-19T22:50:34.393Z,100.00
2023-05-19T22:53:02.583Z,100.00
2023-05-19T22:55:30.816Z,100.00
2023-05-19T22:57:59.087Z,100.00
2023-05-19T23:00:27.321Z,100.00
2023-05-19T23:02:55.547Z,100.00
2023-05-19T23:05:25.129Z,100.00
2023-05-19T23:07:53.322Z,100.00
2023-05-19T23:10:21.513Z,100.00
2023-05-19T23:12:50.106Z,100.00
2023-05-19T23:15:18.350Z,100.00
2023-05-19T23:17:46.608Z,100.00
2023-05-19T23:20:14.904Z,100.00
2023-05-19T23:22:44.466Z,100.00
2023-05-19T23:25:12.715Z,100.00
2023-05-19T23:27:41.016Z,100.00
2023-05-19T23:30:10.260Z,100.00
2023-05-19T23:32:38.480Z,100.00
2023-05-19T23:35:14.088Z,100.00
2023-05-19T23:37:42.258Z,100.00
2023-05-19T23:40:12.632Z,100.00
2023-05-19T23:42:40.811Z,100.00
2023-05-19T23:45:09.881Z,100.00
2023-05-19T23:47:38.307Z,100.00
2023-05-19T23:50:07.087Z,100.00
2023-05-19T23:52:35.306Z,100.00
2023-05-19T23:55:03.685Z,100.00
2023-05-19T23:57:33.233Z,100.00
